createdAt,value
2018-05-09T00:00:02.811Z,88.46
2018-05-09T00:01:02.776Z,88.94
2018-05-09T00:02:02.749Z,88.75
2018-05-09T00:03:02.714Z,89.32
2018-05-09T00:04:02.681Z,88.27
2018-05-09T00:05:02.643Z,87.79
2018-05-09T00:06:02.607Z,88.27
2018-05-09T00:07:02.580Z,88.08
2018-05-09T00:08:02.549Z,88.17
2018-05-09T00:09:02.517Z,89.04
2018-05-09T00:10:02.486Z,88.75
2018-05-09T00:11:02.449Z,89.51
2018-05-09T00:12:02.449Z,90.38
2018-05-09T00:13:02.379Z,89.90
2018-05-09T00:14:02.345Z,89.90
2018-05-09T00:15:02.313Z,89.90
2018-05-09T00:16:02.284Z,90.57
2018-05-09T00:17:02.252Z,89.61
2018-05-09T00:18:02.212Z,90.19
2018-05-09T00:19:02.183Z,90.19
2018-05-09T00:20:02.153Z,88.94
2018-05-09T00:21:02.119Z,89.71
2018-05-09T00:22:02.086Z,89.90
2018-05-09T00:23:02.051Z,89.90
2018-05-09T00:24:02.016Z,89.04
2018-05-09T00:25:01.980Z,89.61
2018-05-09T00:26:01.943Z,88.17
2018-05-09T00:27:01.916Z,87.79
2018-05-09T00:28:01.886Z,87.84
2018-05-09T00:29:01.855Z,87.37
2018-05-09T00:30:01.821Z,86.88
2018-05-09T00:31:01.786Z,85.93
2018-05-09T00:32:01.751Z,84.11
2018-05-09T00:33:01.716Z,82.67
2018-05-09T00:34:01.688Z,82.67
2018-05-09T00:35:01.654Z,82.57
2018-05-09T00:36:01.623Z,84.01
2018-05-09T00:37:01.582Z,79.66
2018-05-09T00:38:01.549Z,77.94
2018-05-09T00:39:01.518Z,73.24
2018-05-09T00:40:01.488Z,70.37
2018-05-09T00:41:01.464Z,65.20
2018-05-09T00:42:01.423Z,62.97
2018-05-09T00:43:01.387Z,57.42
2018-05-09T00:44:01.352Z,55.67
2018-05-09T00:45:01.317Z,50.70
2018-05-09T00:46:01.281Z,47.73
2018-05-09T00:47:01.253Z,45.53
2018-05-09T00:48:01.223Z,45.43
2018-05-09T00:49:01.190Z,44.26
2018-05-09T00:50:01.221Z,43.12
2018-05-09T00:51:01.118Z,42.25
2018-05-09T00:52:01.088Z,42.64
2018-05-09T00:53:01.058Z,42.64
2018-05-09T00:54:01.023Z,40.06
2018-05-09T00:55:00.987Z,40.92
2018-05-09T00:56:00.952Z,38.14
2018-05-09T00:57:00.914Z,37.38
2018-05-09T00:58:00.882Z,36.71
2018-05-09T00:59:00.850Z,38.71
2018-05-09T01:00:00.818Z,40.44
2018-05-09T01:01:00.789Z,41.97
2018-05-09T01:02:00.752Z,43.30
2018-05-09T01:03:00.720Z,42.25
2018-05-09T01:04:00.683Z,43.02
2018-05-09T01:05:00.643Z,37.28
2018-05-09T01:06:00.619Z,33.56
2018-05-09T01:07:00.591Z,28.97
2018-05-09T01:08:00.547Z,24.76
2018-05-09T01:09:00.509Z,21.31
2018-05-09T01:10:00.477Z,22.93
2018-05-09T01:11:00.446Z,19.77
2018-05-09T01:12:00.415Z,15.37
2018-05-09T01:13:00.382Z,12.60
2018-05-09T01:14:00.347Z,10.50
2018-05-09T01:15:00.312Z,10.11
2018-05-09T01:16:00.275Z,10.60
2018-05-09T01:17:00.239Z,12.31
2018-05-09T01:18:00.210Z,14.70
2018-05-09T01:19:00.173Z,22.25
2018-05-09T01:20:00.142Z,28.17
2018-05-09T01:21:00.107Z,31.23
2018-05-09T01:22:00.065Z,34.77
2018-05-09T01:23:00.036Z,38.41
2018-05-09T01:24:00.004Z,39.27
2018-05-09T01:24:59.970Z,41.18
2018-05-09T01:25:59.936Z,39.18
2018-05-09T01:26:59.899Z,37.36
2018-05-09T01:27:59.866Z,35.35
2018-05-09T01:28:59.826Z,40.44
2018-05-09T01:29:59.792Z,42.64
2018-05-09T01:30:59.754Z,43.30
2018-05-09T01:31:59.732Z,40.15
2018-05-09T01:32:59.692Z,36.04
2018-05-09T01:33:59.659Z,32.68
2018-05-09T01:34:59.625Z,30.77
2018-05-09T01:35:59.580Z,29.05
2018-05-09T01:36:59.552Z,28.86
2018-05-09T01:37:59.520Z,28.95
2018-05-09T01:38:59.486Z,27.04
2018-05-09T01:39:59.444Z,29.33
2018-05-09T01:40:59.414Z,35.64
2018-05-09T01:41:59.378Z,35.26
2018-05-09T01:42:59.340Z,32.39
2018-05-09T01:43:59.324Z,30.10
2018-05-09T01:44:59.279Z,29.62
2018-05-09T01:45:59.244Z,31.05
2018-05-09T01:46:59.210Z,29.62
2018-05-09T01:47:59.167Z,32.10
2018-05-09T01:48:59.138Z,31.82
2018-05-09T01:49:59.104Z,32.20
2018-05-09T01:50:59.064Z,32.49
2018-05-09T01:51:59.039Z,33.54
2018-05-09T01:52:59.002Z,35.26
2018-05-09T01:53:58.970Z,35.93
2018-05-09T01:54:59.014Z,32.58
2018-05-09T01:55:58.900Z,34.40
2018-05-09T01:56:58.863Z,33.06
2018-05-09T01:57:58.828Z,34.78
2018-05-09T01:58:58.796Z,34.59
2018-05-09T01:59:58.752Z,26.18
2018-05-09T02:00:58.723Z,24.94
2018-05-09T02:01:58.684Z,26.85
2018-05-09T02:02:58.649Z,26.55
2018-05-09T02:03:58.622Z,25.02
2018-05-09T02:04:58.588Z,18.81
2018-05-09T02:05:58.572Z,16.81
2018-05-09T02:06:58.526Z,15.75
2018-05-09T02:07:58.477Z,13.65
2018-05-09T02:08:58.442Z,12.60
2018-05-09T02:09:58.411Z,11.07
2018-05-09T02:10:58.379Z,10.31
2018-05-09T02:11:58.336Z,9.74
2018-05-09T02:12:58.306Z,11.55
2018-05-09T02:13:58.268Z,12.99
2018-05-09T02:14:58.232Z,10.88
2018-05-09T02:15:58.207Z,9.83
2018-05-09T02:16:58.166Z,11.08
2018-05-09T02:17:58.133Z,12.32
2018-05-09T02:18:58.100Z,5.73
2018-05-09T02:19:58.059Z,7.44
2018-05-09T02:20:58.026Z,6.59
2018-05-09T02:21:57.992Z,6.87
2018-05-09T02:22:57.952Z,6.59
2018-05-09T02:23:57.995Z,7.06
2018-05-09T02:24:57.889Z,11.36
2018-05-09T02:25:57.851Z,12.22
2018-05-09T02:26:57.813Z,10.40
2018-05-09T02:27:57.785Z,12.88
2018-05-09T02:28:57.746Z,13.17
2018-05-09T02:29:57.713Z,14.79
2018-05-09T02:30:57.681Z,15.84
2018-05-09T02:31:57.639Z,15.94
2018-05-09T02:32:57.606Z,18.52
2018-05-09T02:33:57.572Z,21.48
2018-05-09T02:34:57.533Z,19.95
2018-05-09T02:35:57.506Z,20.04
2018-05-09T02:36:57.468Z,19.96
2018-05-09T02:37:57.433Z,19.18
2018-05-09T02:38:57.402Z,18.90
2018-05-09T02:39:57.358Z,14.70
2018-05-09T02:40:57.326Z,13.75
2018-05-09T02:41:57.296Z,10.78
2018-05-09T02:42:57.259Z,12.02
2018-05-09T02:43:57.216Z,12.22
2018-05-09T02:44:57.186Z,11.45
2018-05-09T02:45:57.152Z,11.93
2018-05-09T02:46:57.114Z,13.07
2018-05-09T02:47:57.084Z,13.93
2018-05-09T02:48:57.048Z,11.26
2018-05-09T02:49:57.051Z,10.88
2018-05-09T02:50:56.978Z,11.26
2018-05-09T02:51:56.936Z,9.92
2018-05-09T02:52:56.913Z,10.88
2018-05-09T02:53:56.874Z,5.91
2018-05-09T02:54:56.830Z,8.30
2018-05-09T02:55:56.804Z,8.87
2018-05-09T02:56:56.767Z,9.55
2018-05-09T02:57:56.727Z,6.59
2018-05-09T02:58:56.691Z,5.15
2018-05-09T02:59:56.662Z,5.44
2018-05-09T03:00:56.624Z,5.63
2018-05-09T03:01:56.590Z,3.15
2018-05-09T03:02:56.557Z,1.62
2018-05-09T03:03:56.513Z,0.00
2018-05-09T03:04:56.482Z,0.00
2018-05-09T03:05:56.447Z,0.00
2018-05-09T03:06:56.406Z,0.00
2018-05-09T03:07:56.377Z,0.00
2018-05-09T03:08:56.341Z,0.00
2018-05-09T03:09:56.314Z,0.00
2018-05-09T03:10:56.271Z,0.00
2018-05-09T03:11:56.229Z,0.00
2018-05-09T03:12:56.198Z,0.00
2018-05-09T03:13:56.163Z,0.00
2018-05-09T03:14:56.129Z,0.00
2018-05-09T03:15:56.094Z,0.00
2018-05-09T03:16:56.055Z,0.00
2018-05-09T03:17:56.019Z,0.00
2018-05-09T03:18:55.978Z,0.00
2018-05-09T03:19:55.951Z,0.00
2018-05-09T03:20:55.918Z,0.00
2018-05-09T03:21:55.879Z,0.00
2018-05-09T03:22:55.845Z,0.00
2018-05-09T03:23:55.802Z,0.00
2018-05-09T03:24:55.771Z,0.00
2018-05-09T03:25:55.737Z,0.00
2018-05-09T03:26:55.696Z,0.00
2018-05-09T03:27:55.667Z,0.00
2018-05-09T03:28:55.629Z,0.00
2018-05-09T03:29:55.590Z,0.00
2018-05-09T03:30:55.556Z,0.00
2018-05-09T03:31:55.527Z,0.00
2018-05-09T03:32:55.486Z,0.00
2018-05-09T03:33:55.449Z,0.00
2018-05-09T03:34:55.417Z,0.00
2018-05-09T03:35:55.375Z,0.00
2018-05-09T03:36:55.340Z,0.00
2018-05-09T03:37:55.306Z,0.00
2018-05-09T03:38:55.266Z,0.00
2018-05-09T03:39:55.236Z,0.00
2018-05-09T03:40:55.202Z,0.00
2018-05-09T03:41:55.163Z,0.00
2018-05-09T03:42:55.130Z,0.00
2018-05-09T03:43:55.088Z,0.00
2018-05-09T03:44:55.056Z,0.00
2018-05-09T03:45:55.021Z,0.00
2018-05-09T03:46:54.988Z,0.00
2018-05-09T03:47:54.947Z,0.00
2018-05-09T03:48:54.913Z,0.00
2018-05-09T03:49:54.875Z,0.00
2018-05-09T03:50:54.837Z,0.00
2018-05-09T03:51:54.808Z,0.00
2018-05-09T03:52:54.772Z,0.00
2018-05-09T03:53:54.738Z,0.00
2018-05-09T03:54:54.701Z,0.00
2018-05-09T03:55:54.656Z,0.00
2018-05-09T03:56:54.626Z,0.00
2018-05-09T03:57:54.590Z,0.00
2018-05-09T03:58:54.552Z,0.00
2018-05-09T03:59:54.523Z,0.00
2018-05-09T04:00:54.484Z,0.00
2018-05-09T04:01:54.446Z,0.00
2018-05-09T04:02:54.407Z,0.00
2018-05-09T04:03:54.379Z,0.00
2018-05-09T04:04:54.341Z,0.00
2018-05-09T04:05:54.304Z,0.00
2018-05-09T04:06:54.281Z,0.00
2018-05-09T04:07:54.228Z,0.00
2018-05-09T04:08:54.196Z,0.00
2018-05-09T04:09:54.162Z,0.00
2018-05-09T04:10:54.119Z,0.00
2018-05-09T04:11:54.092Z,0.00
2018-05-09T04:12:54.056Z,0.00
2018-05-09T04:13:54.020Z,0.00
2018-05-09T04:14:54.063Z,0.00
2018-05-09T04:15:53.942Z,0.00
2018-05-09T04:16:53.909Z,0.00
2018-05-09T04:17:53.874Z,0.00
2018-05-09T04:18:53.840Z,0.00
2018-05-09T04:19:53.809Z,0.00
2018-05-09T04:20:53.812Z,0.00
2018-05-09T04:21:53.729Z,0.00
2018-05-09T04:22:53.690Z,0.00
2018-05-09T04:23:53.662Z,0.00
2018-05-09T04:24:53.625Z,0.00
2018-05-09T04:25:53.589Z,0.00
2018-05-09T04:26:53.553Z,0.00
2018-05-09T04:27:53.512Z,0.00
2018-05-09T04:28:53.480Z,0.00
2018-05-09T04:29:53.445Z,0.00
2018-05-09T04:30:53.405Z,0.00
2018-05-09T04:31:53.376Z,0.00
2018-05-09T04:32:53.340Z,0.00
2018-05-09T04:33:53.301Z,0.00
2018-05-09T04:34:53.263Z,0.00
2018-05-09T04:35:53.242Z,0.00
2018-05-09T04:36:53.197Z,0.00
2018-05-09T04:37:53.162Z,0.00
2018-05-09T04:38:53.129Z,0.00
2018-05-09T04:39:53.084Z,0.00
2018-05-09T04:40:53.053Z,0.00
2018-05-09T04:41:53.024Z,0.00
2018-05-09T04:42:52.978Z,0.00
2018-05-09T04:43:52.951Z,4.39
2018-05-09T04:44:52.914Z,7.64
2018-05-09T04:45:52.879Z,6.97
2018-05-09T04:46:52.844Z,8.89
2018-05-09T04:47:52.801Z,14.05
2018-05-09T04:48:52.770Z,16.44
2018-05-09T04:49:52.736Z,17.21
2018-05-09T04:50:52.703Z,19.02
2018-05-09T04:51:52.668Z,18.35
2018-05-09T04:52:52.629Z,14.91
2018-05-09T04:53:52.591Z,14.34
2018-05-09T04:54:52.557Z,11.28
2018-05-09T04:55:52.528Z,8.51
2018-05-09T04:56:52.490Z,9.36
2018-05-09T04:57:52.452Z,7.74
2018-05-09T04:58:52.422Z,8.60
2018-05-09T04:59:52.387Z,7.35
2018-05-09T05:00:52.351Z,7.54
2018-05-09T05:01:52.314Z,9.08
2018-05-09T05:02:52.275Z,9.46
2018-05-09T05:03:52.248Z,8.31
2018-05-09T05:04:52.210Z,8.51
2018-05-09T05:05:52.174Z,7.26
2018-05-09T05:06:52.143Z,8.60
2018-05-09T05:07:52.111Z,12.52
2018-05-09T05:08:52.073Z,14.91
2018-05-09T05:09:52.038Z,19.60
2018-05-09T05:10:52.005Z,17.41
2018-05-09T05:11:51.964Z,21.04
2018-05-09T05:12:51.937Z,20.09
2018-05-09T05:13:51.898Z,18.74
2018-05-09T05:14:51.860Z,19.99
2018-05-09T05:15:51.863Z,18.27
2018-05-09T05:16:51.797Z,13.40
2018-05-09T05:17:51.762Z,15.02
2018-05-09T05:18:51.733Z,12.34
2018-05-09T05:19:51.689Z,8.99
2018-05-09T05:20:51.658Z,9.38
2018-05-09T05:21:51.626Z,7.08
2018-05-09T05:22:51.594Z,12.16
2018-05-09T05:23:51.552Z,18.76
2018-05-09T05:24:51.522Z,16.55
2018-05-09T05:25:51.488Z,18.85
2018-05-09T05:26:51.448Z,17.90
2018-05-09T05:27:51.426Z,18.76
2018-05-09T05:28:51.389Z,29.20
2018-05-09T05:29:51.354Z,24.79
2018-05-09T05:30:51.322Z,22.21
2018-05-09T05:31:51.280Z,17.04
2018-05-09T05:32:51.269Z,15.80
2018-05-09T05:33:51.217Z,16.18
2018-05-09T05:34:51.179Z,18.00
2018-05-09T05:35:51.154Z,17.90
2018-05-09T05:36:51.119Z,18.57
2018-05-09T05:37:51.083Z,19.35
2018-05-09T05:38:51.057Z,15.13
2018-05-09T05:39:51.022Z,15.42
2018-05-09T05:40:50.988Z,15.90
2018-05-09T05:41:50.950Z,14.75
2018-05-09T05:42:50.920Z,13.12
2018-05-09T05:43:50.883Z,12.55
2018-05-09T05:44:50.854Z,22.80
2018-05-09T05:45:50.822Z,29.13
2018-05-09T05:46:50.779Z,27.70
2018-05-09T05:47:50.754Z,31.05
2018-05-09T05:48:50.719Z,29.04
2018-05-09T05:49:50.687Z,29.33
2018-05-09T05:50:50.654Z,25.41
2018-05-09T05:51:50.616Z,36.24
2018-05-09T05:52:50.588Z,40.47
2018-05-09T05:53:50.554Z,43.44
2018-05-09T05:54:50.524Z,42.98
2018-05-09T05:55:50.485Z,41.06
2018-05-09T05:56:50.455Z,41.83
2018-05-09T05:57:50.422Z,42.11
2018-05-09T05:58:50.441Z,47.20
2018-05-09T05:59:50.362Z,54.01
2018-05-09T06:00:50.328Z,47.77
2018-05-09T06:01:50.294Z,49.05
2018-05-09T06:02:50.265Z,53.36
2018-05-09T06:03:50.231Z,54.23
2018-05-09T06:04:50.196Z,47.61
2018-05-09T06:05:50.165Z,49.72
2018-05-09T06:06:50.127Z,52.02
2018-05-09T06:07:50.105Z,32.25
2018-05-09T06:08:50.072Z,31.79
2018-05-09T06:09:50.038Z,26.21
2018-05-09T06:10:50.005Z,26.50
2018-05-09T06:11:49.978Z,44.17
2018-05-09T06:12:49.950Z,50.44
2018-05-09T06:13:49.914Z,52.36
2018-05-09T06:14:49.883Z,53.42
2018-05-09T06:15:49.845Z,55.82
2018-05-09T06:16:49.816Z,50.37
2018-05-09T06:17:49.784Z,47.20
2018-05-09T06:18:49.748Z,43.07
2018-05-09T06:19:49.726Z,51.23
2018-05-09T06:20:49.697Z,49.51
2018-05-09T06:21:49.661Z,49.22
2018-05-09T06:22:49.631Z,52.68
2018-05-09T06:23:49.604Z,61.91
2018-05-09T06:24:49.566Z,69.95
2018-05-09T06:25:49.537Z,72.64
2018-05-09T06:26:49.508Z,74.27
2018-05-09T06:27:49.473Z,74.65
2018-05-09T06:28:49.446Z,74.75
2018-05-09T06:29:49.413Z,71.19
2018-05-09T06:30:49.465Z,74.75
2018-05-09T06:31:49.355Z,75.71
2018-05-09T06:32:49.326Z,76.19
2018-05-09T06:33:49.296Z,76.48
2018-05-09T06:34:49.266Z,78.02
2018-05-09T06:35:49.230Z,78.44
2018-05-09T06:36:49.203Z,81.23
2018-05-09T06:37:49.259Z,80.27
2018-05-09T06:38:49.139Z,77.48
2018-05-09T06:39:49.116Z,79.50
2018-05-09T06:40:49.089Z,79.02
2018-05-09T06:41:49.054Z,77.29
2018-05-09T06:42:49.019Z,72.86
2018-05-09T06:43:49.017Z,74.30
2018-05-09T06:44:48.966Z,73.63
2018-05-09T06:45:48.936Z,79.07
2018-05-09T06:46:48.908Z,72.58
2018-05-09T06:47:48.872Z,74.60
2018-05-09T06:48:48.845Z,70.75
2018-05-09T06:49:48.815Z,67.29
2018-05-09T06:50:48.780Z,68.73
2018-05-09T06:51:48.760Z,69.12
2018-05-09T06:52:48.726Z,63.25
2018-05-09T06:53:48.696Z,59.82
2018-05-09T06:54:48.671Z,72.23
2018-05-09T06:55:48.630Z,71.08
2018-05-09T06:56:48.604Z,64.63
2018-05-09T06:57:48.576Z,68.76
2018-05-09T06:58:48.553Z,71.17
2018-05-09T06:59:48.511Z,73.38
2018-05-09T07:00:48.484Z,73.28
2018-05-09T07:01:48.450Z,71.84
2018-05-09T07:02:48.420Z,74.25
2018-05-09T07:03:48.397Z,78.48
2018-05-09T07:04:48.365Z,77.04
2018-05-09T07:05:48.334Z,80.79
2018-05-09T07:06:48.576Z,82.14
2018-05-09T07:07:48.271Z,82.32
2018-05-09T07:08:48.242Z,84.67
2018-05-09T07:09:48.212Z,82.46
2018-05-09T07:10:48.178Z,85.16
2018-05-09T07:11:48.154Z,83.23
2018-05-09T07:12:48.124Z,83.72
2018-05-09T07:13:48.091Z,84.77
2018-05-09T07:14:48.059Z,83.14
2018-05-09T07:15:48.038Z,85.25
2018-05-09T07:16:48.003Z,85.16
2018-05-09T07:17:47.973Z,85.83
2018-05-09T07:18:47.945Z,83.52
2018-05-09T07:19:47.906Z,85.00
2018-05-09T07:20:47.881Z,86.45
2018-05-09T07:21:47.850Z,84.91
2018-05-09T07:22:47.821Z,84.91
2018-05-09T07:23:47.794Z,87.03
2018-05-09T07:24:47.762Z,77.92
2018-05-09T07:25:47.732Z,88.71
2018-05-09T07:26:47.704Z,87.94
2018-05-09T07:27:47.668Z,82.54
2018-05-09T07:28:47.641Z,74.45
2018-05-09T07:29:47.614Z,74.45
2018-05-09T07:30:47.583Z,67.23
2018-05-09T07:31:47.549Z,71.66
2018-05-09T07:32:47.520Z,71.66
2018-05-09T07:33:47.490Z,81.63
2018-05-09T07:34:47.453Z,81.45
2018-05-09T07:35:47.433Z,78.94
2018-05-09T07:36:47.402Z,77.88
2018-05-09T07:37:47.372Z,77.06
2018-05-09T07:38:47.342Z,80.29
2018-05-09T07:39:47.312Z,78.85
2018-05-09T07:40:47.281Z,82.02
2018-05-09T07:41:47.254Z,81.35
2018-05-09T07:42:47.217Z,85.49
2018-05-09T07:43:47.200Z,88.57
2018-05-09T07:44:47.163Z,89.34
2018-05-09T07:45:47.129Z,89.82
2018-05-09T07:46:47.096Z,90.50
2018-05-09T07:47:47.145Z,91.07
2018-05-09T07:48:47.043Z,88.18
2018-05-09T07:49:47.012Z,90.54
2018-05-09T07:50:46.984Z,89.86
2018-05-09T07:51:46.947Z,89.86
2018-05-09T07:52:46.919Z,86.69
2018-05-09T07:53:46.942Z,86.11
2018-05-09T07:54:46.858Z,88.23
2018-05-09T07:55:46.835Z,87.55
2018-05-09T07:56:46.805Z,87.98
2018-05-09T07:57:46.774Z,88.46
2018-05-09T07:58:46.752Z,88.32
2018-05-09T07:59:46.713Z,87.70
2018-05-09T08:00:46.683Z,89.43
2018-05-09T08:01:46.655Z,87.74
2018-05-09T08:02:46.629Z,88.42
2018-05-09T08:03:46.590Z,89.14
2018-05-09T08:04:46.565Z,88.08
2018-05-09T08:05:46.595Z,89.72
2018-05-09T08:06:46.499Z,86.73
2018-05-09T08:07:46.478Z,85.19
2018-05-09T08:08:46.448Z,87.70
2018-05-09T08:09:46.423Z,88.46
2018-05-09T08:10:46.388Z,87.02
2018-05-09T08:11:46.353Z,86.25
2018-05-09T08:12:46.400Z,84.90
2018-05-09T08:13:46.295Z,87.70
2018-05-09T08:14:46.263Z,87.40
2018-05-09T08:15:46.241Z,85.09
2018-05-09T08:16:46.212Z,80.94
2018-05-09T08:17:46.182Z,87.70
2018-05-09T08:18:46.143Z,88.65
2018-05-09T08:19:46.123Z,85.09
2018-05-09T08:20:46.092Z,84.70
2018-05-09T08:21:46.060Z,83.45
2018-05-09T08:22:46.030Z,85.57
2018-05-09T08:23:46.080Z,86.73
2018-05-09T08:24:45.970Z,88.56
2018-05-09T08:25:45.941Z,87.40
2018-05-09T08:26:45.909Z,86.05
2018-05-09T08:27:45.886Z,87.98
2018-05-09T08:28:45.854Z,87.98
2018-05-09T08:29:45.824Z,84.22
2018-05-09T08:30:45.796Z,84.61
2018-05-09T08:31:45.759Z,87.60
2018-05-09T08:32:45.734Z,81.52
2018-05-09T08:33:45.705Z,79.60
2018-05-09T08:34:45.678Z,79.11
2018-05-09T08:35:45.640Z,80.46
2018-05-09T08:36:45.647Z,77.76
2018-05-09T08:37:45.584Z,77.00
2018-05-09T08:38:45.554Z,78.44
2018-05-09T08:39:45.530Z,73.14
2018-05-09T08:40:45.498Z,68.90
2018-05-09T08:41:45.468Z,68.61
2018-05-09T08:42:45.442Z,69.29
2018-05-09T08:43:45.440Z,72.08
2018-05-09T08:44:45.378Z,72.66
2018-05-09T08:45:45.349Z,73.05
2018-05-09T08:46:45.315Z,74.91
2018-05-09T08:47:45.294Z,75.49
2018-05-09T08:48:45.268Z,75.49
2018-05-09T08:49:45.229Z,81.32
2018-05-09T08:50:45.224Z,77.71
2018-05-09T08:51:45.175Z,80.64
2018-05-09T08:52:45.142Z,79.19
2018-05-09T08:53:45.114Z,79.87
2018-05-09T08:54:45.085Z,75.40
2018-05-09T08:55:45.046Z,72.73
2018-05-09T08:56:45.026Z,70.76
2018-05-09T08:57:44.992Z,75.97
2018-05-09T08:58:44.959Z,81.57
2018-05-09T08:59:44.937Z,78.42
2018-05-09T09:00:44.909Z,79.77
2018-05-09T09:01:44.876Z,80.64
2018-05-09T09:02:44.847Z,80.06
2018-05-09T09:03:44.811Z,83.63
2018-05-09T09:04:44.788Z,82.53
2018-05-09T09:05:44.757Z,83.50
2018-05-09T09:06:44.731Z,84.46
2018-05-09T09:07:44.692Z,87.20
2018-05-09T09:08:44.666Z,85.17
2018-05-09T09:09:44.639Z,83.34
2018-05-09T09:10:44.661Z,83.73
2018-05-09T09:11:44.582Z,82.57
2018-05-09T09:12:44.551Z,82.38
2018-05-09T09:13:44.521Z,81.90
2018-05-09T09:14:44.493Z,81.12
2018-05-09T09:15:44.466Z,85.56
2018-05-09T09:16:44.430Z,82.48
2018-05-09T09:17:44.400Z,81.22
2018-05-09T09:18:44.377Z,85.27
2018-05-09T09:19:44.344Z,79.49
2018-05-09T09:20:44.350Z,78.13
2018-05-09T09:21:44.282Z,83.92
2018-05-09T09:22:44.252Z,84.74
2018-05-09T09:23:44.227Z,79.24
2018-05-09T09:24:44.197Z,78.17
2018-05-09T09:25:44.167Z,79.33
2018-05-09T09:26:44.141Z,76.72
2018-05-09T09:27:44.104Z,76.34
2018-05-09T09:28:44.076Z,75.57
2018-05-09T09:29:44.047Z,73.93
2018-05-09T09:30:44.071Z,69.29
2018-05-09T09:31:43.992Z,69.20
2018-05-09T09:32:43.961Z,69.10
2018-05-09T09:33:43.931Z,69.39
2018-05-09T09:34:43.904Z,70.45
2018-05-09T09:35:43.868Z,69.10
2018-05-09T09:36:43.842Z,66.20
2018-05-09T09:37:43.826Z,69.87
2018-05-09T09:38:43.787Z,73.83
2018-05-09T09:39:43.750Z,70.16
2018-05-09T09:40:43.724Z,73.54
2018-05-09T09:41:43.695Z,65.34
2018-05-09T09:42:43.660Z,64.18
2018-05-09T09:43:43.640Z,67.59
2018-05-09T09:44:43.608Z,62.47
2018-05-09T09:45:43.579Z,58.51
2018-05-09T09:46:43.552Z,62.86
2018-05-09T09:47:43.513Z,63.15
2018-05-09T09:48:43.488Z,63.89
2018-05-09T09:49:43.460Z,67.11
2018-05-09T09:50:43.518Z,67.97
2018-05-09T09:51:43.407Z,67.97
2018-05-09T09:52:43.375Z,69.71
2018-05-09T09:53:43.342Z,65.47
2018-05-09T09:54:43.309Z,63.15
2018-05-09T09:55:43.287Z,65.66
2018-05-09T09:56:43.260Z,65.27
2018-05-09T09:57:43.227Z,66.40
2018-05-09T09:58:43.200Z,67.75
2018-05-09T09:59:43.164Z,71.06
2018-05-09T10:00:43.140Z,67.11
2018-05-09T10:01:43.103Z,67.88
2018-05-09T10:02:43.075Z,66.24
2018-05-09T10:03:43.052Z,65.47
2018-05-09T10:04:43.026Z,65.27
2018-05-09T10:05:43.000Z,68.75
2018-05-09T10:06:42.965Z,65.85
2018-05-09T10:07:42.933Z,70.78
2018-05-09T10:08:42.902Z,66.14
2018-05-09T10:09:42.878Z,69.90
2018-05-09T10:10:42.844Z,71.84
2018-05-09T10:11:42.815Z,70.87
2018-05-09T10:12:42.784Z,72.03
2018-05-09T10:13:42.755Z,69.52
2018-05-09T10:14:42.730Z,69.52
2018-05-09T10:15:42.731Z,70.87
2018-05-09T10:16:42.675Z,70.20
2018-05-09T10:17:42.644Z,76.67
2018-05-09T10:18:42.620Z,76.42
2018-05-09T10:19:42.583Z,74.93
2018-05-09T10:20:42.556Z,75.99
2018-05-09T10:21:42.523Z,77.73
2018-05-09T10:22:42.500Z,75.99
2018-05-09T10:23:42.471Z,75.89
2018-05-09T10:24:42.442Z,75.79
2018-05-09T10:25:42.406Z,74.64
2018-05-09T10:26:42.380Z,80.57
2018-05-09T10:27:42.353Z,76.90
2018-05-09T10:28:42.328Z,82.11
2018-05-09T10:29:42.297Z,82.98
2018-05-09T10:30:42.266Z,74.62
2018-05-09T10:31:42.235Z,73.16
2018-05-09T10:32:42.201Z,76.16
2018-05-09T10:33:42.178Z,75.68
2018-05-09T10:34:42.148Z,74.90
2018-05-09T10:35:42.122Z,70.07
2018-05-09T10:36:42.095Z,70.56
2018-05-09T10:37:42.065Z,64.18
2018-05-09T10:38:42.035Z,64.47
2018-05-09T10:39:42.005Z,66.50
2018-05-09T10:40:41.974Z,69.01
2018-05-09T10:41:42.031Z,69.72
2018-05-09T10:42:41.921Z,66.82
2018-05-09T10:43:41.889Z,65.34
2018-05-09T10:44:41.858Z,66.01
2018-05-09T10:45:41.829Z,65.72
2018-05-09T10:46:41.802Z,68.91
2018-05-09T10:47:41.775Z,71.36
2018-05-09T10:48:41.751Z,68.27
2018-05-09T10:49:41.721Z,64.40
2018-05-09T10:50:41.771Z,67.21
2018-05-09T10:51:41.658Z,66.33
2018-05-09T10:52:41.625Z,71.66
2018-05-09T10:53:41.600Z,65.66
2018-05-09T10:54:41.575Z,66.53
2018-05-09T10:55:41.544Z,68.08
2018-05-09T10:56:41.519Z,74.46
2018-05-09T10:57:41.485Z,67.33
2018-05-09T10:58:41.459Z,64.53
2018-05-09T10:59:41.443Z,64.92
2018-05-09T11:00:41.403Z,61.82
2018-05-09T11:01:41.378Z,61.53
2018-05-09T11:02:41.348Z,60.17
2018-05-09T11:03:41.322Z,60.85
2018-05-09T11:04:41.282Z,62.50
2018-05-09T11:05:41.257Z,61.33
2018-05-09T11:06:41.229Z,60.57
2018-05-09T11:07:41.216Z,59.72
2018-05-09T11:08:41.185Z,63.59
2018-05-09T11:09:41.149Z,59.23
2018-05-09T11:10:41.123Z,57.71
2018-05-09T11:11:41.088Z,52.29
2018-05-09T11:12:41.058Z,51.81
2018-05-09T11:13:41.033Z,56.36
2018-05-09T11:14:41.006Z,59.75
2018-05-09T11:15:40.973Z,56.46
2018-05-09T11:16:40.942Z,53.65
2018-05-09T11:17:40.990Z,55.20
2018-05-09T11:18:40.888Z,51.72
2018-05-09T11:19:40.861Z,51.52
2018-05-09T11:20:40.835Z,48.61
2018-05-09T11:21:40.806Z,51.81
2018-05-09T11:22:40.778Z,52.66
2018-05-09T11:23:40.746Z,54.69
2018-05-09T11:24:40.738Z,55.76
2018-05-09T11:25:40.686Z,57.88
2018-05-09T11:26:40.663Z,56.34
2018-05-09T11:27:40.636Z,55.46
2018-05-09T11:28:40.610Z,57.62
2018-05-09T11:29:40.574Z,53.75
2018-05-09T11:30:40.549Z,53.36
2018-05-09T11:31:40.523Z,58.59
2018-05-09T11:32:40.497Z,61.88
2018-05-09T11:33:40.470Z,63.14
2018-05-09T11:34:40.440Z,57.53
2018-05-09T11:35:40.409Z,57.84
2018-05-09T11:36:40.378Z,51.81
2018-05-09T11:37:40.347Z,56.07
2018-05-09T11:38:40.329Z,58.69
2018-05-09T11:39:40.300Z,58.52
2018-05-09T11:40:40.274Z,55.62
2018-05-09T11:41:40.244Z,60.27
2018-05-09T11:42:40.220Z,51.84
2018-05-09T11:43:40.185Z,53.70
2018-05-09T11:44:40.152Z,52.22
2018-05-09T11:45:40.130Z,53.00
2018-05-09T11:46:40.104Z,55.13
2018-05-09T11:47:40.075Z,59.39
2018-05-09T11:48:40.045Z,52.80
2018-05-09T11:49:40.014Z,53.87
2018-05-09T11:50:39.990Z,53.58
2018-05-09T11:51:39.965Z,55.90
2018-05-09T11:52:39.939Z,51.64
2018-05-09T11:53:39.911Z,51.74
2018-05-09T11:54:39.881Z,55.52
2018-05-09T11:55:39.851Z,53.09
2018-05-09T11:56:39.822Z,55.42
2018-05-09T11:57:39.790Z,51.54
2018-05-09T11:58:39.768Z,52.32
2018-05-09T11:59:39.745Z,46.99
2018-05-09T12:00:39.717Z,46.09
2018-05-09T12:01:39.739Z,46.48
2018-05-09T12:02:39.704Z,47.84
2018-05-09T12:03:39.632Z,48.22
2018-05-09T12:04:39.606Z,47.64
2018-05-09T12:05:39.577Z,46.97
2018-05-09T12:06:39.553Z,48.61
2018-05-09T12:07:39.520Z,50.26
2018-05-09T12:08:39.488Z,52.78
2018-05-09T12:09:39.458Z,53.45
2018-05-09T12:10:39.530Z,48.61
2018-05-09T12:11:39.410Z,49.49
2018-05-09T12:12:39.383Z,48.22
2018-05-09T12:13:39.356Z,48.03
2018-05-09T12:14:39.326Z,47.84
2018-05-09T12:15:39.298Z,48.52
2018-05-09T12:39:55.965Z,46.38
2018-05-09T12:40:55.895Z,44.23
2018-05-09T12:41:55.862Z,45.20
2018-05-09T12:42:55.828Z,45.78
2018-05-09T12:43:55.788Z,45.07
2018-05-09T12:44:55.762Z,46.43
2018-05-09T12:45:55.728Z,47.98
2018-05-09T12:46:55.700Z,46.04
2018-05-09T12:47:55.659Z,46.45
2018-05-09T12:48:55.711Z,45.07
2018-05-09T12:49:55.603Z,47.91
2018-05-09T12:50:55.573Z,49.07
2018-05-09T12:51:55.550Z,48.20
2018-05-09T12:52:55.519Z,47.23
2018-05-09T12:55:27.558Z,44.71
2018-05-09T12:56:27.502Z,46.07
2018-05-09T12:57:27.464Z,45.27
2018-05-09T12:58:27.439Z,46.53
2018-05-09T12:59:27.410Z,49.73
2018-05-09T13:00:27.465Z,49.63
2018-05-09T13:01:27.357Z,50.72
2018-05-09T13:02:27.327Z,48.39
2018-05-09T13:03:27.299Z,47.03
2018-05-09T13:04:27.273Z,46.55
2018-05-09T13:05:27.239Z,49.07
2018-05-09T13:06:27.214Z,46.16
2018-05-09T13:07:27.304Z,48.52
2018-05-09T13:08:27.154Z,49.29
2018-05-09T13:09:27.136Z,48.32
2018-05-09T13:10:27.105Z,46.77
2018-05-09T13:11:27.077Z,47.16
2018-05-09T13:12:27.046Z,45.51
2018-05-09T13:13:27.024Z,45.58
2018-05-09T13:14:26.995Z,48.10
2018-05-09T13:15:26.979Z,47.23
2018-05-09T13:16:26.943Z,44.51
2018-05-09T13:17:26.910Z,45.78
2018-05-09T13:18:26.885Z,43.54
2018-05-09T13:19:26.856Z,45.20
2018-05-09T13:20:26.830Z,45.10
2018-05-09T13:21:26.805Z,43.84